sensor_id;sensor_type;location;lat;lon;timestamp;P1;durP1;ratioP1;P2;durP2;ratioP2
76409;SDS011;65238;42.662;23.280;2024-01-30T00:01:22;10.68;;;5.88;;
76409;SDS011;65238;42.662;23.280;2024-01-30T00:03:47;9.40;;;5.15;;
76409;SDS011;65238;42.662;23.280;2024-01-30T00:06:13;8.98;;;4.65;;
76409;SDS011;65238;42.662;23.280;2024-01-30T00:08:38;8.95;;;4.82;;
76409;SDS011;65238;42.662;23.280;2024-01-30T00:11:03;9.77;;;4.90;;
76409;SDS011;65238;42.662;23.280;2024-01-30T00:13:29;8.43;;;5.13;;
76409;SDS011;65238;42.662;23.280;2024-01-30T00:15:54;7.82;;;4.38;;
76409;SDS011;65238;42.662;23.280;2024-01-30T00:18:19;9.80;;;4.93;;
76409;SDS011;65238;42.662;23.280;2024-01-30T00:20:45;9.95;;;4.70;;
76409;SDS011;65238;42.662;23.280;2024-01-30T00:23:10;10.63;;;5.18;;
76409;SDS011;65238;42.662;23.280;2024-01-30T00:25:35;10.25;;;5.20;;
76409;SDS011;65238;42.662;23.280;2024-01-30T00:28:01;8.18;;;4.60;;
76409;SDS011;65238;42.662;23.280;2024-01-30T00:30:26;9.02;;;4.50;;
76409;SDS011;65238;42.662;23.280;2024-01-30T00:32:51;9.10;;;4.80;;
76409;SDS011;65238;42.662;23.280;2024-01-30T00:35:17;9.52;;;4.88;;
76409;SDS011;65238;42.662;23.280;2024-01-30T00:37:42;11.15;;;5.43;;
76409;SDS011;65238;42.662;23.280;2024-01-30T00:40:08;7.28;;;4.05;;
76409;SDS011;65238;42.662;23.280;2024-01-30T00:42:35;9.30;;;5.32;;
76409;SDS011;65238;42.662;23.280;2024-01-30T00:45:01;8.50;;;4.45;;
76409;SDS011;65238;42.662;23.280;2024-01-30T00:47:26;9.63;;;4.75;;
76409;SDS011;65238;42.662;23.280;2024-01-30T00:49:51;8.85;;;5.00;;
76409;SDS011;65238;42.662;23.280;2024-01-30T00:52:17;8.95;;;4.82;;
76409;SDS011;65238;42.662;23.280;2024-01-30T00:54:42;8.85;;;4.63;;
76409;SDS011;65238;42.662;23.280;2024-01-30T00:57:08;9.35;;;4.80;;
76409;SDS011;65238;42.662;23.280;2024-01-30T00:59:33;10.73;;;5.18;;
76409;SDS011;65238;42.662;23.280;2024-01-30T01:01:59;8.95;;;4.18;;
76409;SDS011;65238;42.662;23.280;2024-01-30T01:04:24;9.18;;;4.88;;
76409;SDS011;65238;42.662;23.280;2024-01-30T01:06:51;10.70;;;5.22;;
76409;SDS011;65238;42.662;23.280;2024-01-30T01:09:17;8.77;;;4.65;;
76409;SDS011;65238;42.662;23.280;2024-01-30T01:11:42;13.35;;;4.70;;
76409;SDS011;65238;42.662;23.280;2024-01-30T01:14:08;10.00;;;4.63;;
76409;SDS011;65238;42.662;23.280;2024-01-30T01:16:33;10.90;;;5.72;;
76409;SDS011;65238;42.662;23.280;2024-01-30T01:18:58;9.07;;;4.60;;
76409;SDS011;65238;42.662;23.280;2024-01-30T01:21:25;10.27;;;5.32;;
76409;SDS011;65238;42.662;23.280;2024-01-30T01:23:50;9.25;;;4.80;;
76409;SDS011;65238;42.662;23.280;2024-01-30T01:26:16;8.88;;;5.10;;
76409;SDS011;65238;42.662;23.280;2024-01-30T01:28:42;11.65;;;5.20;;
76409;SDS011;65238;42.662;23.280;2024-01-30T01:31:07;9.05;;;5.25;;
76409;SDS011;65238;42.662;23.280;2024-01-30T01:33:32;8.85;;;4.55;;
76409;SDS011;65238;42.662;23.280;2024-01-30T01:35:58;9.77;;;5.05;;
76409;SDS011;65238;42.662;23.280;2024-01-30T01:38:24;8.00;;;4.35;;
76409;SDS011;65238;42.662;23.280;2024-01-30T01:40:49;9.15;;;4.68;;
76409;SDS011;65238;42.662;23.280;2024-01-30T01:43:14;8.88;;;4.68;;
76409;SDS011;65238;42.662;23.280;2024-01-30T01:45:39;7.30;;;4.43;;
76409;SDS011;65238;42.662;23.280;2024-01-30T01:48:05;8.68;;;4.13;;
76409;SDS011;65238;42.662;23.280;2024-01-30T01:50:30;10.07;;;4.70;;
76409;SDS011;65238;42.662;23.280;2024-01-30T01:52:56;9.30;;;4.82;;
76409;SDS011;65238;42.662;23.280;2024-01-30T01:55:21;7.13;;;3.75;;
76409;SDS011;65238;42.662;23.280;2024-01-30T01:57:48;8.90;;;5.03;;
76409;SDS011;65238;42.662;23.280;2024-01-30T02:00:14;10.55;;;4.70;;
76409;SDS011;65238;42.662;23.280;2024-01-30T02:02:39;8.82;;;4.68;;
76409;SDS011;65238;42.662;23.280;2024-01-30T02:05:05;7.07;;;4.10;;
76409;SDS011;65238;42.662;23.280;2024-01-30T02:07:30;11.25;;;4.30;;
76409;SDS011;65238;42.662;23.280;2024-01-30T02:09:56;9.20;;;4.72;;
76409;SDS011;65238;42.662;23.280;2024-01-30T02:12:21;8.38;;;4.43;;
76409;SDS011;65238;42.662;23.280;2024-01-30T02:14:47;9.20;;;4.50;;
76409;SDS011;65238;42.662;23.280;2024-01-30T02:17:15;7.57;;;4.10;;
76409;SDS011;65238;42.662;23.280;2024-01-30T02:19:41;9.00;;;4.90;;
76409;SDS011;65238;42.662;23.280;2024-01-30T02:22:06;8.23;;;4.38;;
76409;SDS011;65238;42.662;23.280;2024-01-30T02:24:32;8.18;;;4.50;;
76409;SDS011;65238;42.662;23.280;2024-01-30T02:26:57;7.80;;;4.07;;
76409;SDS011;65238;42.662;23.280;2024-01-30T02:29:22;9.57;;;4.35;;
76409;SDS011;65238;42.662;23.280;2024-01-30T02:31:47;10.25;;;5.15;;
76409;SDS011;65238;42.662;23.280;2024-01-30T02:34:13;9.75;;;4.80;;
76409;SDS011;65238;42.662;23.280;2024-01-30T02:36:38;8.80;;;5.28;;
76409;SDS011;65238;42.662;23.280;2024-01-30T02:39:07;8.48;;;4.18;;
76409;SDS011;65238;42.662;23.280;2024-01-30T02:41:33;11.40;;;5.90;;
76409;SDS011;65238;42.662;23.280;2024-01-30T02:43:58;12.38;;;5.18;;
76409;SDS011;65238;42.662;23.280;2024-01-30T02:46:23;9.13;;;4.47;;
76409;SDS011;65238;42.662;23.280;2024-01-30T02:48:48;11.18;;;4.75;;
76409;SDS011;65238;42.662;23.280;2024-01-30T02:51:14;8.02;;;4.53;;
76409;SDS011;65238;42.662;23.280;2024-01-30T02:53:39;8.15;;;4.68;;
76409;SDS011;65238;42.662;23.280;2024-01-30T02:56:05;8.93;;;4.10;;
76409;SDS011;65238;42.662;23.280;2024-01-30T02:58:30;7.20;;;4.53;;
76409;SDS011;65238;42.662;23.280;2024-01-30T03:00:56;10.27;;;4.72;;
76409;SDS011;65238;42.662;23.280;2024-01-30T03:03:21;8.93;;;4.43;;
76409;SDS011;65238;42.662;23.280;2024-01-30T03:05:47;9.20;;;3.95;;
76409;SDS011;65238;42.662;23.280;2024-01-30T03:08:12;7.97;;;4.07;;
76409;SDS011;65238;42.662;23.280;2024-01-30T03:10:38;8.73;;;4.00;;
76409;SDS011;65238;42.662;23.280;2024-01-30T03:13:03;10.38;;;4.30;;
76409;SDS011;65238;42.662;23.280;2024-01-30T03:15:28;7.50;;;4.10;;
76409;SDS011;65238;42.662;23.280;2024-01-30T03:17:54;8.82;;;4.30;;
76409;SDS011;65238;42.662;23.280;2024-01-30T03:20:19;6.18;;;3.80;;
76409;SDS011;65238;42.662;23.280;2024-01-30T03:22:45;7.47;;;3.83;;
76409;SDS011;65238;42.662;23.280;2024-01-30T03:25:10;7.93;;;4.30;;
76409;SDS011;65238;42.662;23.280;2024-01-30T03:27:35;7.63;;;4.10;;
76409;SDS011;65238;42.662;23.280;2024-01-30T03:30:00;8.70;;;4.07;;
76409;SDS011;65238;42.662;23.280;2024-01-30T03:32:26;8.52;;;3.92;;
76409;SDS011;65238;42.662;23.280;2024-01-30T03:34:51;6.90;;;3.55;;
76409;SDS011;65238;42.662;23.280;2024-01-30T03:37:16;8.80;;;3.92;;
76409;SDS011;65238;42.662;23.280;2024-01-30T03:39:42;6.93;;;3.58;;
76409;SDS011;65238;42.662;23.280;2024-01-30T03:42:07;5.35;;;3.20;;
76409;SDS011;65238;42.662;23.280;2024-01-30T03:44:32;7.07;;;3.75;;
76409;SDS011;65238;42.662;23.280;2024-01-30T03:46:58;7.15;;;3.95;;
76409;SDS011;65238;42.662;23.280;2024-01-30T03:49:23;7.78;;;3.97;;
76409;SDS011;65238;42.662;23.280;2024-01-30T03:51:48;5.53;;;3.22;;
76409;SDS011;65238;42.662;23.280;2024-01-30T03:54:14;6.35;;;3.53;;
76409;SDS011;65238;42.662;23.280;2024-01-30T03:56:39;6.93;;;3.58;;
76409;SDS011;65238;42.662;23.280;2024-01-30T03:59:04;5.82;;;3.20;;
76409;SDS011;65238;42.662;23.280;2024-01-30T04:01:30;5.20;;;3.10;;
76409;SDS011;65238;42.662;23.280;2024-01-30T04:03:55;7.03;;;3.22;;
76409;SDS011;65238;42.662;23.280;2024-01-30T04:06:21;5.00;;;2.88;;
76409;SDS011;65238;42.662;23.280;2024-01-30T04:08:46;5.80;;;3.15;;
76409;SDS011;65238;42.662;23.280;2024-01-30T04:11:12;6.97;;;3.15;;
76409;SDS011;65238;42.662;23.280;2024-01-30T04:13:37;6.97;;;2.80;;
76409;SDS011;65238;42.662;23.280;2024-01-30T04:16:02;5.35;;;2.88;;
76409;SDS011;65238;42.662;23.280;2024-01-30T04:18:28;5.50;;;2.92;;
76409;SDS011;65238;42.662;23.280;2024-01-30T04:20:54;10.65;;;4.07;;
76409;SDS011;65238;42.662;23.280;2024-01-30T04:23:19;8.55;;;4.20;;
76409;SDS011;65238;42.662;23.280;2024-01-30T04:25:44;8.60;;;4.07;;
76409;SDS011;65238;42.662;23.280;2024-01-30T04:28:10;7.30;;;3.70;;
76409;SDS011;65238;42.662;23.280;2024-01-30T04:30:37;7.45;;;3.70;;
76409;SDS011;65238;42.662;23.280;2024-01-30T04:33:02;5.70;;;3.25;;
76409;SDS011;65238;42.662;23.280;2024-01-30T04:35:28;6.82;;;3.70;;
76409;SDS011;65238;42.662;23.280;2024-01-30T04:37:53;9.52;;;3.97;;
76409;SDS011;65238;42.662;23.280;2024-01-30T04:40:19;12.65;;;4.10;;
76409;SDS011;65238;42.662;23.280;2024-01-30T04:42:44;10.88;;;4.40;;
76409;SDS011;65238;42.662;23.280;2024-01-30T04:45:09;7.35;;;4.00;;
76409;SDS011;65238;42.662;23.280;2024-01-30T04:47:34;10.15;;;4.68;;
76409;SDS011;65238;42.662;23.280;2024-01-30T04:50:00;6.13;;;3.67;;
76409;SDS011;65238;42.662;23.280;2024-01-30T04:52:26;7.47;;;3.10;;
76409;SDS011;65238;42.662;23.280;2024-01-30T04:54:51;8.57;;;4.82;;
76409;SDS011;65238;42.662;23.280;2024-01-30T04:57:16;7.97;;;4.22;;
76409;SDS011;65238;42.662;23.280;2024-01-30T04:59:42;9.15;;;4.10;;
76409;SDS011;65238;42.662;23.280;2024-01-30T05:02:07;7.90;;;4.15;;
76409;SDS011;65238;42.662;23.280;2024-01-30T05:04:33;9.40;;;4.47;;
76409;SDS011;65238;42.662;23.280;2024-01-30T05:06:58;9.55;;;4.80;;
76409;SDS011;65238;42.662;23.280;2024-01-30T05:09:24;8.40;;;4.05;;
76409;SDS011;65238;42.662;23.280;2024-01-30T05:11:49;8.65;;;4.00;;
76409;SDS011;65238;42.662;23.280;2024-01-30T05:14:14;9.32;;;4.05;;
76409;SDS011;65238;42.662;23.280;2024-01-30T05:16:43;7.45;;;3.83;;
76409;SDS011;65238;42.662;23.280;2024-01-30T05:19:11;11.70;;;4.00;;
76409;SDS011;65238;42.662;23.280;2024-01-30T05:21:37;7.55;;;3.55;;
76409;SDS011;65238;42.662;23.280;2024-01-30T05:24:02;8.63;;;4.18;;
76409;SDS011;65238;42.662;23.280;2024-01-30T05:26:27;12.32;;;4.20;;
76409;SDS011;65238;42.662;23.280;2024-01-30T05:28:53;10.25;;;4.35;;
76409;SDS011;65238;42.662;23.280;2024-01-30T05:31:18;7.97;;;4.00;;
76409;SDS011;65238;42.662;23.280;2024-01-30T05:33:43;6.53;;;3.45;;
76409;SDS011;65238;42.662;23.280;2024-01-30T05:36:11;7.40;;;3.78;;
76409;SDS011;65238;42.662;23.280;2024-01-30T05:38:36;7.78;;;3.72;;
76409;SDS011;65238;42.662;23.280;2024-01-30T05:41:02;8.32;;;4.30;;
76409;SDS011;65238;42.662;23.280;2024-01-30T05:43:27;12.32;;;3.95;;
76409;SDS011;65238;42.662;23.280;2024-01-30T05:45:52;7.75;;;3.80;;
76409;SDS011;65238;42.662;23.280;2024-01-30T05:48:18;7.78;;;4.10;;
76409;SDS011;65238;42.662;23.280;2024-01-30T05:50:43;8.73;;;3.72;;
76409;SDS011;65238;42.662;23.280;2024-01-30T05:53:08;8.43;;;4.25;;
76409;SDS011;65238;42.662;23.280;2024-01-30T05:55:34;11.45;;;4.55;;
76409;SDS011;65238;42.662;23.280;2024-01-30T05:57:59;13.70;;;4.25;;
76409;SDS011;65238;42.662;23.280;2024-01-30T06:00:24;8.07;;;4.18;;
76409;SDS011;65238;42.662;23.280;2024-01-30T06:02:50;15.40;;;4.57;;
76409;SDS011;65238;42.662;23.280;2024-01-30T06:05:15;8.27;;;3.80;;
76409;SDS011;65238;42.662;23.280;2024-01-30T06:07:40;9.02;;;4.28;;
76409;SDS011;65238;42.662;23.280;2024-01-30T06:10:06;9.90;;;4.38;;
76409;SDS011;65238;42.662;23.280;2024-01-30T06:12:32;8.63;;;3.58;;
76409;SDS011;65238;42.662;23.280;2024-01-30T06:14:57;11.90;;;4.40;;
76409;SDS011;65238;42.662;23.280;2024-01-30T06:17:25;9.52;;;4.03;;
76409;SDS011;65238;42.662;23.280;2024-01-30T06:19:51;7.90;;;4.07;;
76409;SDS011;65238;42.662;23.280;2024-01-30T06:22:16;8.43;;;4.80;;
76409;SDS011;65238;42.662;23.280;2024-01-30T06:24:41;10.27;;;4.25;;
76409;SDS011;65238;42.662;23.280;2024-01-30T06:27:09;11.52;;;4.40;;
76409;SDS011;65238;42.662;23.280;2024-01-30T06:29:35;10.57;;;4.60;;
76409;SDS011;65238;42.662;23.280;2024-01-30T06:32:00;11.63;;;4.80;;
76409;SDS011;65238;42.662;23.280;2024-01-30T06:34:25;9.73;;;4.70;;
76409;SDS011;65238;42.662;23.280;2024-01-30T06:36:51;12.00;;;4.82;;
76409;SDS011;65238;42.662;23.280;2024-01-30T06:39:16;11.25;;;4.78;;
76409;SDS011;65238;42.662;23.280;2024-01-30T06:41:42;16.30;;;5.07;;
76409;SDS011;65238;42.662;23.280;2024-01-30T06:44:07;11.02;;;4.60;;
76409;SDS011;65238;42.662;23.280;2024-01-30T06:46:33;10.30;;;5.03;;
76409;SDS011;65238;42.662;23.280;2024-01-30T06:48:59;11.68;;;5.05;;
76409;SDS011;65238;42.662;23.280;2024-01-30T06:51:24;15.55;;;4.85;;
76409;SDS011;65238;42.662;23.280;2024-01-30T06:53:49;11.85;;;5.50;;
76409;SDS011;65238;42.662;23.280;2024-01-30T06:56:15;11.00;;;5.00;;
76409;SDS011;65238;42.662;23.280;2024-01-30T06:58:41;12.65;;;6.20;;
76409;SDS011;65238;42.662;23.280;2024-01-30T07:01:07;9.65;;;4.95;;
76409;SDS011;65238;42.662;23.280;2024-01-30T07:03:32;8.27;;;3.90;;
76409;SDS011;65238;42.662;23.280;2024-01-30T07:05:58;12.13;;;5.00;;
76409;SDS011;65238;42.662;23.280;2024-01-30T07:08:23;8.73;;;4.25;;
76409;SDS011;65238;42.662;23.280;2024-01-30T07:10:48;11.25;;;4.10;;
76409;SDS011;65238;42.662;23.280;2024-01-30T07:13:14;9.57;;;3.83;;
76409;SDS011;65238;42.662;23.280;2024-01-30T07:15:41;10.55;;;5.10;;
76409;SDS011;65238;42.662;23.280;2024-01-30T07:18:07;8.30;;;4.18;;
76409;SDS011;65238;42.662;23.280;2024-01-30T07:20:32;13.25;;;4.43;;
76409;SDS011;65238;42.662;23.280;2024-01-30T07:22:58;8.80;;;4.20;;
76409;SDS011;65238;42.662;23.280;2024-01-30T07:25:23;11.82;;;4.03;;
76409;SDS011;65238;42.662;23.280;2024-01-30T07:27:52;7.90;;;3.50;;
76409;SDS011;65238;42.662;23.280;2024-01-30T07:30:20;7.55;;;2.70;;
76409;SDS011;65238;42.662;23.280;2024-01-30T07:32:46;6.38;;;2.63;;
76409;SDS011;65238;42.662;23.280;2024-01-30T07:35:12;5.18;;;2.63;;
76409;SDS011;65238;42.662;23.280;2024-01-30T07:37:37;4.03;;;1.90;;
76409;SDS011;65238;42.662;23.280;2024-01-30T07:40:02;4.13;;;2.15;;
76409;SDS011;65238;42.662;23.280;2024-01-30T07:42:28;5.18;;;2.17;;
76409;SDS011;65238;42.662;23.280;2024-01-30T07:44:54;4.80;;;2.60;;
76409;SDS011;65238;42.662;23.280;2024-01-30T07:47:19;9.18;;;2.72;;
76409;SDS011;65238;42.662;23.280;2024-01-30T07:49:44;4.25;;;2.33;;
76409;SDS011;65238;42.662;23.280;2024-01-30T07:52:10;5.68;;;2.70;;
76409;SDS011;65238;42.662;23.280;2024-01-30T07:54:40;4.68;;;2.67;;
76409;SDS011;65238;42.662;23.280;2024-01-30T07:57:06;5.38;;;2.78;;
76409;SDS011;65238;42.662;23.280;2024-01-30T07:59:31;11.13;;;4.32;;
76409;SDS011;65238;42.662;23.280;2024-01-30T08:01:57;5.15;;;2.88;;
76409;SDS011;65238;42.662;23.280;2024-01-30T08:04:22;7.30;;;3.25;;
76409;SDS011;65238;42.662;23.280;2024-01-30T08:06:47;6.07;;;2.97;;
76409;SDS011;65238;42.662;23.280;2024-01-30T08:09:13;6.82;;;3.60;;
76409;SDS011;65238;42.662;23.280;2024-01-30T08:11:39;6.78;;;2.95;;
76409;SDS011;65238;42.662;23.280;2024-01-30T08:14:04;6.50;;;2.97;;
76409;SDS011;65238;42.662;23.280;2024-01-30T08:16:30;10.10;;;3.40;;
76409;SDS011;65238;42.662;23.280;2024-01-30T08:18:55;5.55;;;2.60;;
76409;SDS011;65238;42.662;23.280;2024-01-30T08:21:22;4.93;;;2.40;;
76409;SDS011;65238;42.662;23.280;2024-01-30T08:23:48;5.05;;;2.75;;
76409;SDS011;65238;42.662;23.280;2024-01-30T08:26:13;6.50;;;2.75;;
76409;SDS011;65238;42.662;23.280;2024-01-30T08:28:39;5.95;;;3.10;;
76409;SDS011;65238;42.662;23.280;2024-01-30T08:31:04;7.50;;;2.92;;
76409;SDS011;65238;42.662;23.280;2024-01-30T08:33:29;4.05;;;2.30;;
76409;SDS011;65238;42.662;23.280;2024-01-30T08:35:54;5.47;;;2.90;;
76409;SDS011;65238;42.662;23.280;2024-01-30T08:38:20;4.57;;;2.63;;
76409;SDS011;65238;42.662;23.280;2024-01-30T08:40:45;4.80;;;2.70;;
76409;SDS011;65238;42.662;23.280;2024-01-30T08:43:11;5.35;;;3.08;;
76409;SDS011;65238;42.662;23.280;2024-01-30T08:45:36;5.70;;;2.92;;
76409;SDS011;65238;42.662;23.280;2024-01-30T08:48:02;6.53;;;2.63;;
76409;SDS011;65238;42.662;23.280;2024-01-30T08:50:27;5.93;;;2.90;;
76409;SDS011;65238;42.662;23.280;2024-01-30T08:52:53;6.07;;;3.15;;
76409;SDS011;65238;42.662;23.280;2024-01-30T08:55:18;5.20;;;3.38;;
76409;SDS011;65238;42.662;23.280;2024-01-30T08:57:43;7.20;;;3.60;;
76409;SDS011;65238;42.662;23.280;2024-01-30T09:00:09;10.23;;;3.53;;
76409;SDS011;65238;42.662;23.280;2024-01-30T09:02:35;7.22;;;3.35;;
76409;SDS011;65238;42.662;23.280;2024-01-30T09:05:00;7.78;;;3.38;;
76409;SDS011;65238;42.662;23.280;2024-01-30T09:07:26;7.10;;;2.97;;
76409;SDS011;65238;42.662;23.280;2024-01-30T09:09:51;8.40;;;4.07;;
76409;SDS011;65238;42.662;23.280;2024-01-30T09:12:16;7.80;;;4.15;;
76409;SDS011;65238;42.662;23.280;2024-01-30T09:14:42;10.05;;;4.70;;
76409;SDS011;65238;42.662;23.280;2024-01-30T09:17:07;9.30;;;4.60;;
76409;SDS011;65238;42.662;23.280;2024-01-30T09:19:33;11.27;;;5.85;;
76409;SDS011;65238;42.662;23.280;2024-01-30T09:21:58;11.45;;;4.85;;
76409;SDS011;65238;42.662;23.280;2024-01-30T09:24:23;11.38;;;4.95;;
76409;SDS011;65238;42.662;23.280;2024-01-30T09:26:49;9.73;;;4.88;;
76409;SDS011;65238;42.662;23.280;2024-01-30T09:29:14;8.63;;;4.72;;
76409;SDS011;65238;42.662;23.280;2024-01-30T09:31:42;7.20;;;4.13;;
76409;SDS011;65238;42.662;23.280;2024-01-30T09:34:07;7.18;;;4.18;;
76409;SDS011;65238;42.662;23.280;2024-01-30T09:36:33;6.32;;;3.70;;
76409;SDS011;65238;42.662;23.280;2024-01-30T09:38:58;6.45;;;3.42;;
76409;SDS011;65238;42.662;23.280;2024-01-30T09:41:24;8.45;;;5.00;;
76409;SDS011;65238;42.662;23.280;2024-01-30T09:43:50;10.85;;;4.43;;
76409;SDS011;65238;42.662;23.280;2024-01-30T09:46:16;7.53;;;3.88;;
76409;SDS011;65238;42.662;23.280;2024-01-30T09:48:42;8.73;;;4.25;;
76409;SDS011;65238;42.662;23.280;2024-01-30T09:51:10;8.85;;;3.78;;
76409;SDS011;65238;42.662;23.280;2024-01-30T09:53:36;8.88;;;4.18;;
76409;SDS011;65238;42.662;23.280;2024-01-30T09:56:02;8.52;;;4.18;;
76409;SDS011;65238;42.662;23.280;2024-01-30T09:58:27;7.65;;;4.20;;
76409;SDS011;65238;42.662;23.280;2024-01-30T10:00:53;8.02;;;4.13;;
76409;SDS011;65238;42.662;23.280;2024-01-30T10:03:19;8.05;;;4.03;;
76409;SDS011;65238;42.662;23.280;2024-01-30T10:05:45;10.93;;;4.00;;
76409;SDS011;65238;42.662;23.280;2024-01-30T10:08:16;5.47;;;3.33;;
76409;SDS011;65238;42.662;23.280;2024-01-30T10:10:41;7.13;;;3.67;;
76409;SDS011;65238;42.662;23.280;2024-01-30T10:13:10;9.20;;;3.92;;
76409;SDS011;65238;42.662;23.280;2024-01-30T10:15:36;7.50;;;3.22;;
76409;SDS011;65238;42.662;23.280;2024-01-30T10:18:04;6.47;;;3.10;;
76409;SDS011;65238;42.662;23.280;2024-01-30T10:20:31;8.57;;;4.47;;
76409;SDS011;65238;42.662;23.280;2024-01-30T10:22:57;11.48;;;3.80;;
76409;SDS011;65238;42.662;23.280;2024-01-30T10:25:22;7.38;;;3.78;;
76409;SDS011;65238;42.662;23.280;2024-01-30T10:27:52;8.77;;;4.47;;
76409;SDS011;65238;42.662;23.280;2024-01-30T10:30:18;6.60;;;3.80;;
76409;SDS011;65238;42.662;23.280;2024-01-30T10:32:43;8.05;;;3.88;;
76409;SDS011;65238;42.662;23.280;2024-01-30T10:35:09;7.32;;;4.30;;
76409;SDS011;65238;42.662;23.280;2024-01-30T10:37:34;8.23;;;4.07;;
76409;SDS011;65238;42.662;23.280;2024-01-30T10:40:02;8.77;;;3.88;;
76409;SDS011;65238;42.662;23.280;2024-01-30T10:42:28;6.20;;;3.75;;
76409;SDS011;65238;42.662;23.280;2024-01-30T10:45:07;5.60;;;3.08;;
76409;SDS011;65238;42.662;23.280;2024-01-30T10:47:34;6.68;;;3.63;;
76409;SDS011;65238;42.662;23.280;2024-01-30T10:50:00;8.60;;;4.00;;
76409;SDS011;65238;42.662;23.280;2024-01-30T10:52:26;12.30;;;3.90;;
76409;SDS011;65238;42.662;23.280;2024-01-30T10:54:51;8.20;;;4.10;;
76409;SDS011;65238;42.662;23.280;2024-01-30T10:57:17;8.52;;;4.25;;
76409;SDS011;65238;42.662;23.280;2024-01-30T10:59:44;8.20;;;4.50;;
76409;SDS011;65238;42.662;23.280;2024-01-30T11:02:10;14.35;;;4.97;;
76409;SDS011;65238;42.662;23.280;2024-01-30T11:04:42;5.90;;;3.63;;
76409;SDS011;65238;42.662;23.280;2024-01-30T11:07:17;5.68;;;3.38;;
76409;SDS011;65238;42.662;23.280;2024-01-30T11:12:24;8.15;;;3.47;;
76409;SDS011;65238;42.662;23.280;2024-01-30T11:14:50;8.10;;;3.90;;
76409;SDS011;65238;42.662;23.280;2024-01-30T11:17:15;6.60;;;3.17;;
76409;SDS011;65238;42.662;23.280;2024-01-30T11:19:44;7.70;;;3.03;;
76409;SDS011;65238;42.662;23.280;2024-01-30T11:22:11;9.45;;;3.42;;
76409;SDS011;65238;42.662;23.280;2024-01-30T11:24:38;8.70;;;4.00;;
76409;SDS011;65238;42.662;23.280;2024-01-30T11:27:07;6.25;;;3.45;;
76409;SDS011;65238;42.662;23.280;2024-01-30T11:29:33;9.00;;;3.47;;
76409;SDS011;65238;42.662;23.280;2024-01-30T11:32:00;5.72;;;3.13;;
76409;SDS011;65238;42.662;23.280;2024-01-30T11:34:25;7.18;;;3.67;;
76409;SDS011;65238;42.662;23.280;2024-01-30T11:37:02;7.43;;;3.33;;
76409;SDS011;65238;42.662;23.280;2024-01-30T11:39:31;5.80;;;3.30;;
76409;SDS011;65238;42.662;23.280;2024-01-30T11:41:56;5.55;;;3.33;;
76409;SDS011;65238;42.662;23.280;2024-01-30T11:44:22;6.30;;;3.40;;
76409;SDS011;65238;42.662;23.280;2024-01-30T11:46:48;7.22;;;3.45;;
76409;SDS011;65238;42.662;23.280;2024-01-30T11:49:14;6.20;;;3.03;;
76409;SDS011;65238;42.662;23.280;2024-01-30T11:51:39;5.97;;;3.75;;
76409;SDS011;65238;42.662;23.280;2024-01-30T11:54:04;5.05;;;3.30;;
76409;SDS011;65238;42.662;23.280;2024-01-30T11:56:30;7.85;;;3.35;;
76409;SDS011;65238;42.662;23.280;2024-01-30T11:58:55;6.85;;;3.50;;
76409;SDS011;65238;42.662;23.280;2024-01-30T12:01:20;4.97;;;2.85;;
76409;SDS011;65238;42.662;23.280;2024-01-30T12:03:49;6.82;;;3.85;;
76409;SDS011;65238;42.662;23.280;2024-01-30T12:06:15;11.05;;;3.33;;
76409;SDS011;65238;42.662;23.280;2024-01-30T12:08:40;6.43;;;2.95;;
76409;SDS011;65238;42.662;23.280;2024-01-30T12:11:06;6.55;;;3.50;;
76409;SDS011;65238;42.662;23.280;2024-01-30T12:13:31;6.43;;;3.40;;
76409;SDS011;65238;42.662;23.280;2024-01-30T12:15:57;7.50;;;3.42;;
76409;SDS011;65238;42.662;23.280;2024-01-30T12:18:22;9.73;;;3.97;;
76409;SDS011;65238;42.662;23.280;2024-01-30T12:21:00;6.00;;;3.38;;
76409;SDS011;65238;42.662;23.280;2024-01-30T12:23:29;5.28;;;2.97;;
76409;SDS011;65238;42.662;23.280;2024-01-30T12:25:54;6.65;;;3.40;;
76409;SDS011;65238;42.662;23.280;2024-01-30T12:28:20;7.30;;;3.85;;
76409;SDS011;65238;42.662;23.280;2024-01-30T12:30:45;6.35;;;3.55;;
76409;SDS011;65238;42.662;23.280;2024-01-30T12:33:15;12.27;;;4.68;;
76409;SDS011;65238;42.662;23.280;2024-01-30T12:35:41;7.68;;;3.35;;
76409;SDS011;65238;42.662;23.280;2024-01-30T12:38:10;7.35;;;3.15;;
76409;SDS011;65238;42.662;23.280;2024-01-30T12:40:36;6.32;;;3.42;;
76409;SDS011;65238;42.662;23.280;2024-01-30T12:43:01;5.75;;;3.70;;
76409;SDS011;65238;42.662;23.280;2024-01-30T12:45:26;9.48;;;3.85;;
76409;SDS011;65238;42.662;23.280;2024-01-30T12:47:51;7.47;;;3.67;;
76409;SDS011;65238;42.662;23.280;2024-01-30T12:50:17;9.77;;;4.03;;
76409;SDS011;65238;42.662;23.280;2024-01-30T12:52:43;7.25;;;3.78;;
76409;SDS011;65238;42.662;23.280;2024-01-30T12:55:09;8.15;;;4.13;;
76409;SDS011;65238;42.662;23.280;2024-01-30T12:57:34;8.07;;;3.90;;
76409;SDS011;65238;42.662;23.280;2024-01-30T12:59:59;7.68;;;4.32;;
76409;SDS011;65238;42.662;23.280;2024-01-30T13:02:25;8.68;;;4.28;;
76409;SDS011;65238;42.662;23.280;2024-01-30T13:04:51;7.63;;;3.88;;
76409;SDS011;65238;42.662;23.280;2024-01-30T13:07:17;9.80;;;4.03;;
76409;SDS011;65238;42.662;23.280;2024-01-30T13:09:42;9.05;;;3.80;;
76409;SDS011;65238;42.662;23.280;2024-01-30T13:12:08;7.85;;;4.30;;
76409;SDS011;65238;42.662;23.280;2024-01-30T13:14:33;9.13;;;4.03;;
76409;SDS011;65238;42.662;23.280;2024-01-30T13:16:58;6.97;;;4.10;;
76409;SDS011;65238;42.662;23.280;2024-01-30T13:19:24;7.60;;;4.55;;
76409;SDS011;65238;42.662;23.280;2024-01-30T13:21:49;7.50;;;3.70;;
76409;SDS011;65238;42.662;23.280;2024-01-30T13:24:14;17.73;;;6.43;;
76409;SDS011;65238;42.662;23.280;2024-01-30T13:26:40;9.02;;;4.43;;
76409;SDS011;65238;42.662;23.280;2024-01-30T13:29:05;9.02;;;4.70;;
76409;SDS011;65238;42.662;23.280;2024-01-30T13:31:31;6.68;;;4.28;;
76409;SDS011;65238;42.662;23.280;2024-01-30T13:33:56;7.72;;;4.60;;
76409;SDS011;65238;42.662;23.280;2024-01-30T13:36:22;9.23;;;3.70;;
76409;SDS011;65238;42.662;23.280;2024-01-30T13:38:47;7.63;;;4.22;;
76409;SDS011;65238;42.662;23.280;2024-01-30T13:41:13;9.20;;;4.50;;
76409;SDS011;65238;42.662;23.280;2024-01-30T13:43:38;7.25;;;4.20;;
76409;SDS011;65238;42.662;23.280;2024-01-30T13:46:04;8.23;;;4.10;;
76409;SDS011;65238;42.662;23.280;2024-01-30T13:48:29;8.55;;;4.45;;
76409;SDS011;65238;42.662;23.280;2024-01-30T13:50:55;9.50;;;4.53;;
76409;SDS011;65238;42.662;23.280;2024-01-30T13:53:20;10.23;;;4.47;;
76409;SDS011;65238;42.662;23.280;2024-01-30T13:55:46;8.90;;;4.90;;
76409;SDS011;65238;42.662;23.280;2024-01-30T13:58:12;9.68;;;4.75;;
76409;SDS011;65238;42.662;23.280;2024-01-30T14:00:37;8.45;;;4.57;;
76409;SDS011;65238;42.662;23.280;2024-01-30T14:03:03;8.88;;;4.93;;
76409;SDS011;65238;42.662;23.280;2024-01-30T14:05:28;9.38;;;4.13;;
76409;SDS011;65238;42.662;23.280;2024-01-30T14:07:54;8.95;;;4.55;;
76409;SDS011;65238;42.662;23.280;2024-01-30T14:10:19;8.48;;;4.35;;
76409;SDS011;65238;42.662;23.280;2024-01-30T14:12:45;12.52;;;4.10;;
76409;SDS011;65238;42.662;23.280;2024-01-30T14:15:11;7.63;;;4.05;;
76409;SDS011;65238;42.662;23.280;2024-01-30T14:17:37;11.98;;;4.68;;
76409;SDS011;65238;42.662;23.280;2024-01-30T14:20:03;9.82;;;4.13;;
76409;SDS011;65238;42.662;23.280;2024-01-30T14:22:29;9.32;;;4.53;;
76409;SDS011;65238;42.662;23.280;2024-01-30T14:24:55;8.82;;;4.47;;